Pont Aven — FNPN — position and weather

sailwx.info

Track history (hours):
 
Tides and Currents Weather Stations Pressure Air Temp Water Temp Dewpoint Dewpoint Depression Visibility Wind Speed Wind Dir Waves Ship Positions

Pont Aven

Last reported at 2018-Dec-12 14:29 UTC. Time now 2018-Dec-12 14:36 UTC.
Position N 50°49' W 001°06'.

Length 185 m; beam 31 m.

Type: Passenger vessel. MMSI: 228183600.

Date/timePositionNaut miles runAvg speedWind from/ knotsBaromVisibWave heightAir tempDewpointWater temp
2018-Dec-12 14:29N 50°49' W 001°06'0 0.0
2018-Dec-12 13:59N 50°49' W 001°06'0 0.0
2018-Dec-12 13:29N 50°49' W 001°06'0 0.0
2018-Dec-12 12:59N 50°49' W 001°06'0 0.0
2018-Dec-12 12:29N 50°49' W 001°06'0 0.0
2018-Dec-12 11:59N 50°49' W 001°06'0 0.0
2018-Dec-12 11:29N 50°49' W 001°06'0 0.0
2018-Dec-12 10:59N 50°49' W 001°06'0 0.0
2018-Dec-12 10:29N 50°49' W 001°06'0 0.0
2018-Dec-12 09:59N 50°49' W 001°06'0 0.0
2018-Dec-12 09:29N 50°49' W 001°06'0 0.0
2018-Dec-12 08:59N 50°49' W 001°06'0 0.0
2018-Dec-12 08:29N 50°49' W 001°06'0 0.0
2018-Dec-12 08:00N 50°49' W 001°06'0 0.3
2018-Dec-12 07:30N 50°49' W 001°06'4 8.9
2018-Dec-12 07:01N 50°44' W 001°05'714.2
2018-Dec-12 06:30N 50°38' W 001°01'713.2
2018-Dec-12 06:00N 50°32' W 001°07'714.6
2018-Dec-12 05:30N 50°27' W 001°15'1214.2
2018-Dec-12 04:40N 50°18' W 001°27'413.8
2018-Dec-12 04:24N 50°15' W 001°29'614.0
2018-Dec-12 04:00N 50°10' W 001°33'714.1
2018-Dec-12 03:31N 50°04' W 001°40'714.6
2018-Dec-12 03:00N 49°58' W 001°46'815.2
2018-Dec-12 02:30N 49°52' W 001°53'815.1
2018-Dec-12 02:00N 49°45' W 001°60'1315.0
2018-Dec-12 01:08N 49°34' W 002°09'4714.5
2018-Dec-11 21:54N 48°47' W 002°07'1 1.7
2018-Dec-11 21:21N 48°46' W 002°08'1 1.5
2018-Dec-11 21:00N 48°46' W 002°08'1 1.9
2018-Dec-11 20:27N 48°45' W 002°10'9 1.1
2018-Dec-11 12:48N 48°38' W 002°02'0 0.0
2018-Dec-11 11:42N 48°38' W 002°02'0 0.0
2018-Dec-11 09:54N 48°38' W 002°02'0 0.0
2018-Dec-11 08:57N 48°38' W 002°02'0 0.0
2018-Dec-11 07:45N 48°38' W 002°02'0 0.1
2018-Dec-11 07:03N 48°38' W 002°02'3 9.7
2018-Dec-11 06:46N 48°40' W 002°05'518.2
2018-Dec-11 06:28N 48°45' W 002°08'1216.4
2018-Dec-11 05:43N 48°54' W 002°21'417.2
2018-Dec-11 05:30N 48°57' W 002°24'1017.7
2018-Dec-11 04:58N 49°06' W 002°31'715.6
2018-Dec-11 04:30N 49°13' W 002°35'714.1
2018-Dec-11 04:00N 49°18' W 002°28'916.2
2018-Dec-11 03:27N 49°24' W 002°18'2517.6
2018-Dec-11 02:03N 49°46' W 001°60'117.5
2018-Dec-11 02:00N 49°46' W 001°59'816.1
2018-Dec-11 01:31N 49°53' W 001°52'815.1
2018-Dec-11 01:01N 49°59' W 001°44'714.3
2018-Dec-11 00:30N 50°03' W 001°36'713.5
2018-Dec-11 00:00N 50°08' W 001°29'713.1
2018-Dec-10 23:29N 50°13' W 001°22'1212.8
2018-Dec-10 22:34N 50°23' W 001°12'312.6
2018-Dec-10 22:18N 50°26' W 001°09'412.4
2018-Dec-10 22:00N 50°29' W 001°06'612.4
2018-Dec-10 21:30N 50°34' W 001°01'714.3
2018-Dec-10 21:00N 50°41' W 000°58'714.9
2018-Dec-10 20:30N 50°47' W 001°06'2 4.0
2018-Dec-10 20:00N 50°49' W 001°06'0 0.0
2018-Dec-10 19:30N 50°49' W 001°06'0 0.0
2018-Dec-10 19:00N 50°49' W 001°06'0 0.0
2018-Dec-10 18:30N 50°49' W 001°06'1 2.1
2018-Dec-10 18:00N 50°48' W 001°07'713.4
2018-Dec-10 17:31N 50°43' W 000°60'917.2
2018-Dec-10 17:00N 50°34' W 001°02'918.2
2018-Dec-10 16:30N 50°27' W 001°11'1618.2
2018-Dec-10 15:36N 50°15' W 001°29'218.2
2018-Dec-10 15:31N 50°14' W 001°30'918.4
2018-Dec-10 15:00N 50°06' W 001°39'816.7
2018-Dec-10 14:30N 49°60' W 001°46'816.7
2018-Dec-10 14:00N 49°53' W 001°54'72 9.8
2018-Dec-10 06:38N 48°41' W 002°06'4518.5
2018-Dec-10 04:11N 49°22' W 002°35'314.8
2018-Dec-10 04:01N 49°22' W 002°31'3115.0
2018-Dec-10 01:55N 49°46' W 001°59'716.4
2018-Dec-10 01:30N 49°51' W 001°52'815.8
2018-Dec-10 01:00N 49°56' W 001°43'714.9
2018-Dec-10 00:30N 50°02' W 001°35'815.1
2018-Dec-10 00:00N 50°08' W 001°28'713.2
2018-Dec-09 23:30N 50°13' W 001°22'1113.3
2018-Dec-09 22:39N 50°23' W 001°12'213.1
2018-Dec-09 22:29N 50°25' W 001°10'612.2
2018-Dec-09 22:01N 50°30' W 001°06'611.8
2018-Dec-09 21:30N 50°35' W 001°01'613.0
2018-Dec-09 21:01N 50°41' W 000°58'713.9
2018-Dec-09 20:30N 50°46' W 001°05'3 5.3
2018-Dec-09 20:00N 50°49' W 001°06'0 0.0
2018-Dec-09 19:30N 50°49' W 001°06'0 0.0
2018-Dec-09 19:00N 50°49' W 001°06'0 0.0
2018-Dec-09 18:30N 50°49' W 001°06'0 0.0
2018-Dec-09 18:00N 50°49' W 001°06'0 0.0
2018-Dec-09 17:30N 50°49' W 001°06'0 0.0
2018-Dec-09 16:58N 50°49' W 001°06'0 0.0
2018-Dec-09 16:28N 50°49' W 001°06'0 0.0
2018-Dec-09 15:58N 50°49' W 001°06'0 0.0
2018-Dec-09 15:28N 50°49' W 001°06'0 0.0
2018-Dec-09 14:58N 50°49' W 001°06'0 0.0
2018-Dec-09 14:28N 50°49' W 001°06'0 0.0
2018-Dec-09 13:58N 50°49' W 001°06'0 0.0
2018-Dec-09 13:28N 50°49' W 001°06'0 0.0
2018-Dec-09 12:58N 50°49' W 001°06'0 0.0
2018-Dec-09 12:28N 50°49' W 001°06'0 0.0
2018-Dec-09 11:58N 50°49' W 001°06'0 0.0
2018-Dec-09 11:28N 50°49' W 001°06'0 0.0
2018-Dec-09 10:58N 50°49' W 001°06'0 0.0
2018-Dec-09 10:28N 50°49' W 001°06'0 0.0
2018-Dec-09 09:58N 50°49' W 001°06'0 0.0
2018-Dec-09 09:28N 50°49' W 001°06'0 0.0
2018-Dec-09 08:58N 50°49' W 001°06'0 0.0
2018-Dec-09 08:28N 50°49' W 001°06'0 0.0
2018-Dec-09 07:59N 50°49' W 001°06'1 1.7
2018-Dec-09 07:30N 50°48' W 001°07'611.5
2018-Dec-09 07:01N 50°43' W 001°02'815.6
2018-Dec-09 06:31N 50°36' W 001°00'1020.0
2018-Dec-09 06:00N 50°27' W 001°08'815.4
2018-Dec-09 05:29N 50°21' W 001°16'714.6
2018-Dec-09 05:00N 50°15' W 001°23'613.0
2018-Dec-09 04:31N 50°11' W 001°30'611.6
2018-Dec-09 04:00N 50°06' W 001°36'611.4
2018-Dec-09 03:30N 50°02' W 001°42'611.6
2018-Dec-09 03:00N 49°57' W 001°46'611.6
2018-Dec-09 02:30N 49°52' W 001°52'611.5
2018-Dec-09 02:01N 49°48' W 001°57'12 9.8
2018-Dec-09 00:48N 49°38' W 002°07'514.6
2018-Dec-09 00:28N 49°33' W 002°10'1415.1
2018-Dec-08 23:33N 49°22' W 002°23'415.3
2018-Dec-08 23:18N 49°21' W 002°29'413.9
2018-Dec-08 23:00N 49°20' W 002°35'7 0.4
2018-Dec-08 04:56N 49°15' W 002°27'715.2
2018-Dec-08 04:29N 49°21' W 002°21'2817.4
2018-Dec-08 02:51N 49°46' W 002°01'515.9
2018-Dec-08 02:30N 49°51' W 001°56'816.7
2018-Dec-08 02:00N 49°58' W 001°49'816.1
2018-Dec-08 01:31N 50°04' W 001°42'815.3
2018-Dec-08 01:00N 50°11' W 001°35'815.3
2018-Dec-08 00:30N 50°17' W 001°28'1114.8
2018-Dec-07 23:45N 50°26' W 001°18'314.1
2018-Dec-07 23:30N 50°29' W 001°15'713.7
2018-Dec-07 23:00N 50°35' W 001°09'815.9
2018-Dec-07 22:30N 50°41' W 001°03'714.3
2018-Dec-07 22:00N 50°48' W 001°07'1 1.9
2018-Dec-07 21:30N 50°49' W 001°06'0 0.0
2018-Dec-07 21:00N 50°49' W 001°06'0 0.0
2018-Dec-07 20:31N 50°49' W 001°06'0 0.0
2018-Dec-07 20:00N 50°49' W 001°06'0 0.0
2018-Dec-07 19:30N 50°49' W 001°06'0 0.0
2018-Dec-07 19:00N 50°49' W 001°06'2 3.5
2018-Dec-07 18:30N 50°47' W 001°06'714.2
2018-Dec-07 18:01N 50°42' W 000°58'1019.9
2018-Dec-07 17:30N 50°35' W 001°09'1923.6
2018-Dec-07 16:43N 50°26' W 001°34'1022.8
2018-Dec-07 16:18N 50°20' W 001°46'722.2
2018-Dec-07 15:59N 50°15' W 001°55'1121.6
2018-Dec-07 15:30N 50°09' W 002°08'12121.0
2018-Dec-07 09:43N 48°49' W 004°28'521.4
2018-Dec-07 09:30N 48°46' W 004°33'1021.0
2018-Dec-07 09:01N 48°39' W 004°45'1020.0
2018-Dec-07 08:31N 48°31' W 004°55'917.9
2018-Dec-07 08:01N 48°24' W 005°04'1121.3
2018-Dec-07 07:31N 48°14' W 005°08'1122.1
2018-Dec-07 07:00N 48°03' W 005°10'1321.7
2018-Dec-07 06:25N 47°51' W 005°05'3822.9
2018-Dec-07 04:45N 47°13' W 004°54'823.3
2018-Dec-07 04:23N 47°05' W 004°52'1123.2
2018-Dec-07 03:56N 46°55' W 004°49'1022.9
2018-Dec-07 03:31N 46°45' W 004°46'2323.3
2018-Dec-07 02:30N 46°23' W 004°38'1223.9
2018-Dec-07 02:01N 46°11' W 004°34'1223.6
2018-Dec-07 01:30N 45°59' W 004°31'1523.4
2018-Dec-07 00:52N 45°45' W 004°26'12323.7
2018-Dec-06 19:40N 43°44' W 003°51'523.6
2018-Dec-06 19:28N 43°40' W 003°49'10 0.4
2018-Dec-05 16:17N 43°31' W 003°43'1 4.8
2018-Dec-05 16:00N 43°32' W 003°42'2 4.4
2018-Dec-05 15:30N 43°33' W 003°39'3 6.8
2018-Dec-05 15:00N 43°33' W 003°44'1 2.7
2018-Dec-05 14:30N 43°33' W 003°42'0 0.5
2018-Dec-05 14:00N 43°33' W 003°43'1 1.0
2018-Dec-05 13:30N 43°32' W 003°43'1 2.0
2018-Dec-05 13:00N 43°31' W 003°43'1 0.3
2018-Dec-05 09:14N 43°31' W 003°45'2 7.3
2018-Dec-05 09:00N 43°32' W 003°45'1 2.2
2018-Dec-05 08:26N 43°32' W 003°44'3 6.7
2018-Dec-05 08:00N 43°33' W 003°40'1 2.8
2018-Dec-05 07:30N 43°34' W 003°41'4 0.2
2018-Dec-04 16:18N 43°31' W 003°43'723.2
2018-Dec-04 16:00N 43°37' W 003°39'4 7.6
2018-Dec-04 15:30N 43°34' W 003°43'8 8.1
2018-Dec-04 14:30N 43°27' W 003°48'  
Track history (hours):
 
Tides and Currents Weather Stations Pressure Air Temp Water Temp Dewpoint Dewpoint Depression Visibility Wind Speed Wind Dir Waves Ship Positions

Pont Aven

Last reported at 2018-Dec-12 14:29 UTC. Time now 2018-Dec-12 14:36 UTC.
Position N 50°49' W 001°06'.

Length 185 m; beam 31 m.

Type: Passenger vessel. MMSI: 228183600.

Date/timePositionNaut miles runAvg speedWind from/ knotsBaromVisibWave heightAir tempDewpointWater temp
2018-Dec-12 14:29N 50°49' W 001°06'0 0.0
2018-Dec-12 13:59N 50°49' W 001°06'0 0.0
2018-Dec-12 13:29N 50°49' W 001°06'0 0.0
2018-Dec-12 12:59N 50°49' W 001°06'0 0.0
2018-Dec-12 12:29N 50°49' W 001°06'0 0.0
2018-Dec-12 11:59N 50°49' W 001°06'0 0.0
2018-Dec-12 11:29N 50°49' W 001°06'0 0.0
2018-Dec-12 10:59N 50°49' W 001°06'0 0.0
2018-Dec-12 10:29N 50°49' W 001°06'0 0.0
2018-Dec-12 09:59N 50°49' W 001°06'0 0.0
2018-Dec-12 09:29N 50°49' W 001°06'0 0.0
2018-Dec-12 08:59N 50°49' W 001°06'0 0.0
2018-Dec-12 08:29N 50°49' W 001°06'0 0.0
2018-Dec-12 08:00N 50°49' W 001°06'0 0.3
2018-Dec-12 07:30N 50°49' W 001°06'4 8.9
2018-Dec-12 07:01N 50°44' W 001°05'714.2
2018-Dec-12 06:30N 50°38' W 001°01'713.2
2018-Dec-12 06:00N 50°32' W 001°07'714.6
2018-Dec-12 05:30N 50°27' W 001°15'1214.2
2018-Dec-12 04:40N 50°18' W 001°27'413.8
2018-Dec-12 04:24N 50°15' W 001°29'614.0
2018-Dec-12 04:00N 50°10' W 001°33'714.1
2018-Dec-12 03:31N 50°04' W 001°40'714.6
2018-Dec-12 03:00N 49°58' W 001°46'815.2
2018-Dec-12 02:30N 49°52' W 001°53'815.1
2018-Dec-12 02:00N 49°45' W 001°60'1315.0
2018-Dec-12 01:08N 49°34' W 002°09'4714.5
2018-Dec-11 21:54N 48°47' W 002°07'1 1.7
2018-Dec-11 21:21N 48°46' W 002°08'1 1.5
2018-Dec-11 21:00N 48°46' W 002°08'1 1.9
2018-Dec-11 20:27N 48°45' W 002°10'9 1.1
2018-Dec-11 12:48N 48°38' W 002°02'0 0.0
2018-Dec-11 11:42N 48°38' W 002°02'0 0.0
2018-Dec-11 09:54N 48°38' W 002°02'0 0.0
2018-Dec-11 08:57N 48°38' W 002°02'0 0.0
2018-Dec-11 07:45N 48°38' W 002°02'0 0.1
2018-Dec-11 07:03N 48°38' W 002°02'3 9.7
2018-Dec-11 06:46N 48°40' W 002°05'518.2
2018-Dec-11 06:28N 48°45' W 002°08'1216.4
2018-Dec-11 05:43N 48°54' W 002°21'417.2
2018-Dec-11 05:30N 48°57' W 002°24'1017.7
2018-Dec-11 04:58N 49°06' W 002°31'715.6
2018-Dec-11 04:30N 49°13' W 002°35'714.1
2018-Dec-11 04:00N 49°18' W 002°28'916.2
2018-Dec-11 03:27N 49°24' W 002°18'2517.6
2018-Dec-11 02:03N 49°46' W 001°60'117.5
2018-Dec-11 02:00N 49°46' W 001°59'816.1
2018-Dec-11 01:31N 49°53' W 001°52'815.1
2018-Dec-11 01:01N 49°59' W 001°44'714.3
2018-Dec-11 00:30N 50°03' W 001°36'713.5
2018-Dec-11 00:00N 50°08' W 001°29'713.1
2018-Dec-10 23:29N 50°13' W 001°22'1212.8
2018-Dec-10 22:34N 50°23' W 001°12'312.6
2018-Dec-10 22:18N 50°26' W 001°09'412.4
2018-Dec-10 22:00N 50°29' W 001°06'612.4
2018-Dec-10 21:30N 50°34' W 001°01'714.3
2018-Dec-10 21:00N 50°41' W 000°58'714.9
2018-Dec-10 20:30N 50°47' W 001°06'2 4.0
2018-Dec-10 20:00N 50°49' W 001°06'0 0.0
2018-Dec-10 19:30N 50°49' W 001°06'0 0.0
2018-Dec-10 19:00N 50°49' W 001°06'0 0.0
2018-Dec-10 18:30N 50°49' W 001°06'1 2.1
2018-Dec-10 18:00N 50°48' W 001°07'713.4
2018-Dec-10 17:31N 50°43' W 000°60'917.2
2018-Dec-10 17:00N 50°34' W 001°02'918.2
2018-Dec-10 16:30N 50°27' W 001°11'1618.2
2018-Dec-10 15:36N 50°15' W 001°29'218.2
2018-Dec-10 15:31N 50°14' W 001°30'918.4
2018-Dec-10 15:00N 50°06' W 001°39'816.7
2018-Dec-10 14:30N 49°60' W 001°46'816.7
2018-Dec-10 14:00N 49°53' W 001°54'72 9.8
2018-Dec-10 06:38N 48°41' W 002°06'4518.5
2018-Dec-10 04:11N 49°22' W 002°35'314.8
2018-Dec-10 04:01N 49°22' W 002°31'3115.0
2018-Dec-10 01:55N 49°46' W 001°59'716.4
2018-Dec-10 01:30N 49°51' W 001°52'815.8
2018-Dec-10 01:00N 49°56' W 001°43'714.9
2018-Dec-10 00:30N 50°02' W 001°35'815.1
2018-Dec-10 00:00N 50°08' W 001°28'713.2
2018-Dec-09 23:30N 50°13' W 001°22'1113.3
2018-Dec-09 22:39N 50°23' W 001°12'213.1
2018-Dec-09 22:29N 50°25' W 001°10'612.2
2018-Dec-09 22:01N 50°30' W 001°06'611.8
2018-Dec-09 21:30N 50°35' W 001°01'613.0
2018-Dec-09 21:01N 50°41' W 000°58'713.9
2018-Dec-09 20:30N 50°46' W 001°05'3 5.3
2018-Dec-09 20:00N 50°49' W 001°06'0 0.0
2018-Dec-09 19:30N 50°49' W 001°06'0 0.0
2018-Dec-09 19:00N 50°49' W 001°06'0 0.0
2018-Dec-09 18:30N 50°49' W 001°06'0 0.0
2018-Dec-09 18:00N 50°49' W 001°06'0 0.0
2018-Dec-09 17:30N 50°49' W 001°06'0 0.0
2018-Dec-09 16:58N 50°49' W 001°06'0 0.0
2018-Dec-09 16:28N 50°49' W 001°06'0 0.0
2018-Dec-09 15:58N 50°49' W 001°06'0 0.0
2018-Dec-09 15:28N 50°49' W 001°06'0 0.0
2018-Dec-09 14:58N 50°49' W 001°06'0 0.0
2018-Dec-09 14:28N 50°49' W 001°06'0 0.0
2018-Dec-09 13:58N 50°49' W 001°06'0 0.0
2018-Dec-09 13:28N 50°49' W 001°06'0 0.0
2018-Dec-09 12:58N 50°49' W 001°06'0 0.0
2018-Dec-09 12:28N 50°49' W 001°06'0 0.0
2018-Dec-09 11:58N 50°49' W 001°06'0 0.0
2018-Dec-09 11:28N 50°49' W 001°06'0 0.0
2018-Dec-09 10:58N 50°49' W 001°06'0 0.0
2018-Dec-09 10:28N 50°49' W 001°06'0 0.0
2018-Dec-09 09:58N 50°49' W 001°06'0 0.0
2018-Dec-09 09:28N 50°49' W 001°06'0 0.0
2018-Dec-09 08:58N 50°49' W 001°06'0 0.0
2018-Dec-09 08:28N 50°49' W 001°06'0 0.0
2018-Dec-09 07:59N 50°49' W 001°06'1 1.7
2018-Dec-09 07:30N 50°48' W 001°07'611.5
2018-Dec-09 07:01N 50°43' W 001°02'815.6
2018-Dec-09 06:31N 50°36' W 001°00'1020.0
2018-Dec-09 06:00N 50°27' W 001°08'815.4
2018-Dec-09 05:29N 50°21' W 001°16'714.6
2018-Dec-09 05:00N 50°15' W 001°23'613.0
2018-Dec-09 04:31N 50°11' W 001°30'611.6
2018-Dec-09 04:00N 50°06' W 001°36'611.4
2018-Dec-09 03:30N 50°02' W 001°42'611.6
2018-Dec-09 03:00N 49°57' W 001°46'611.6
2018-Dec-09 02:30N 49°52' W 001°52'611.5
2018-Dec-09 02:01N 49°48' W 001°57'12 9.8
2018-Dec-09 00:48N 49°38' W 002°07'514.6
2018-Dec-09 00:28N 49°33' W 002°10'1415.1
2018-Dec-08 23:33N 49°22' W 002°23'415.3
2018-Dec-08 23:18N 49°21' W 002°29'413.9
2018-Dec-08 23:00N 49°20' W 002°35'7 0.4
2018-Dec-08 04:56N 49°15' W 002°27'715.2
2018-Dec-08 04:29N 49°21' W 002°21'2817.4
2018-Dec-08 02:51N 49°46' W 002°01'515.9
2018-Dec-08 02:30N 49°51' W 001°56'816.7
2018-Dec-08 02:00N 49°58' W 001°49'816.1
2018-Dec-08 01:31N 50°04' W 001°42'815.3
2018-Dec-08 01:00N 50°11' W 001°35'815.3
2018-Dec-08 00:30N 50°17' W 001°28'1114.8
2018-Dec-07 23:45N 50°26' W 001°18'314.1
2018-Dec-07 23:30N 50°29' W 001°15'713.7
2018-Dec-07 23:00N 50°35' W 001°09'815.9
2018-Dec-07 22:30N 50°41' W 001°03'714.3
2018-Dec-07 22:00N 50°48' W 001°07'1 1.9
2018-Dec-07 21:30N 50°49' W 001°06'0 0.0
2018-Dec-07 21:00N 50°49' W 001°06'0 0.0
2018-Dec-07 20:31N 50°49' W 001°06'0 0.0
2018-Dec-07 20:00N 50°49' W 001°06'0 0.0
2018-Dec-07 19:30N 50°49' W 001°06'0 0.0
2018-Dec-07 19:00N 50°49' W 001°06'2 3.5
2018-Dec-07 18:30N 50°47' W 001°06'714.2
2018-Dec-07 18:01N 50°42' W 000°58'1019.9
2018-Dec-07 17:30N 50°35' W 001°09'1923.6
2018-Dec-07 16:43N 50°26' W 001°34'1022.8
2018-Dec-07 16:18N 50°20' W 001°46'722.2
2018-Dec-07 15:59N 50°15' W 001°55'1121.6
2018-Dec-07 15:30N 50°09' W 002°08'12121.0
2018-Dec-07 09:43N 48°49' W 004°28'521.4
2018-Dec-07 09:30N 48°46' W 004°33'1021.0
2018-Dec-07 09:01N 48°39' W 004°45'1020.0
2018-Dec-07 08:31N 48°31' W 004°55'917.9
2018-Dec-07 08:01N 48°24' W 005°04'1121.3
2018-Dec-07 07:31N 48°14' W 005°08'1122.1
2018-Dec-07 07:00N 48°03' W 005°10'1321.7
2018-Dec-07 06:25N 47°51' W 005°05'3822.9
2018-Dec-07 04:45N 47°13' W 004°54'823.3
2018-Dec-07 04:23N 47°05' W 004°52'1123.2
2018-Dec-07 03:56N 46°55' W 004°49'1022.9
2018-Dec-07 03:31N 46°45' W 004°46'2323.3
2018-Dec-07 02:30N 46°23' W 004°38'1223.9
2018-Dec-07 02:01N 46°11' W 004°34'1223.6
2018-Dec-07 01:30N 45°59' W 004°31'1523.4
2018-Dec-07 00:52N 45°45' W 004°26'12323.7
2018-Dec-06 19:40N 43°44' W 003°51'523.6
2018-Dec-06 19:28N 43°40' W 003°49'10 0.4
2018-Dec-05 16:17N 43°31' W 003°43'1 4.8
2018-Dec-05 16:00N 43°32' W 003°42'2 4.4
2018-Dec-05 15:30N 43°33' W 003°39'3 6.8
2018-Dec-05 15:00N 43°33' W 003°44'1 2.7
2018-Dec-05 14:30N 43°33' W 003°42'0 0.5
2018-Dec-05 14:00N 43°33' W 003°43'1 1.0
2018-Dec-05 13:30N 43°32' W 003°43'1 2.0
2018-Dec-05 13:00N 43°31' W 003°43'1 0.3
2018-Dec-05 09:14N 43°31' W 003°45'2 7.3
2018-Dec-05 09:00N 43°32' W 003°45'1 2.2
2018-Dec-05 08:26N 43°32' W 003°44'3 6.7
2018-Dec-05 08:00N 43°33' W 003°40'1 2.8
2018-Dec-05 07:30N 43°34' W 003°41'4 0.2
2018-Dec-04 16:18N 43°31' W 003°43'723.2
2018-Dec-04 16:00N 43°37' W 003°39'4 7.6
2018-Dec-04 15:30N 43°34' W 003°43'8 8.1
2018-Dec-04 14:30N 43°27' W 003°48'  

Dump ship's entire track history